sensor_id;sensor_type;location;lat;lon;timestamp;P1;durP1;ratioP1;P2;durP2;ratioP2
2107;SDS011;1060;52.492;13.388;2023-04-24T02:01:19;8.83;;;8.13;;
2107;SDS011;1060;52.492;13.388;2023-04-24T02:03:52;8.03;;;7.43;;
2107;SDS011;1060;52.492;13.388;2023-04-24T02:06:57;9.10;;;8.30;;
2107;SDS011;1060;52.492;13.388;2023-04-24T02:10:56;8.73;;;7.87;;
2107;SDS011;1060;52.492;13.388;2023-04-24T02:13:30;14.23;;;12.83;;
2107;SDS011;1060;52.492;13.388;2023-04-24T02:16:08;12.73;;;11.50;;
2107;SDS011;1060;52.492;13.388;2023-04-24T02:21:55;7.83;;;7.23;;
2107;SDS011;1060;52.492;13.388;2023-04-24T02:34:08;7.90;;;7.30;;
2107;SDS011;1060;52.492;13.388;2023-04-24T02:36:40;10.10;;;9.10;;
2107;SDS011;1060;52.492;13.388;2023-04-24T02:46:27;8.83;;;8.23;;
2107;SDS011;1060;52.492;13.388;2023-04-24T02:49:00;10.40;;;9.50;;
2107;SDS011;1060;52.492;13.388;2023-04-24T02:52:09;10.10;;;9.10;;
2107;SDS011;1060;52.492;13.388;2023-04-24T02:55:10;10.87;;;10.07;;
2107;SDS011;1060;52.492;13.388;2023-04-24T02:58:25;8.57;;;7.87;;
2107;SDS011;1060;52.492;13.388;2023-04-24T03:01:09;9.10;;;8.50;;
2107;SDS011;1060;52.492;13.388;2023-04-24T03:03:55;9.30;;;8.50;;
2107;SDS011;1060;52.492;13.388;2023-04-24T03:06:28;9.67;;;8.83;;
2107;SDS011;1060;52.492;13.388;2023-04-24T03:16:04;8.57;;;7.97;;
2107;SDS011;1060;52.492;13.388;2023-04-24T03:18:54;9.70;;;8.90;;
2107;SDS011;1060;52.492;13.388;2023-04-24T03:21:28;8.57;;;7.87;;
2107;SDS011;1060;52.492;13.388;2023-04-24T03:24:31;8.97;;;8.27;;
2107;SDS011;1060;52.492;13.388;2023-04-24T03:27:12;8.17;;;7.50;;
2107;SDS011;1060;52.492;13.388;2023-04-24T03:30:01;8.70;;;7.90;;
2107;SDS011;1060;52.492;13.388;2023-04-24T03:32:48;9.00;;;8.20;;
2107;SDS011;1060;52.492;13.388;2023-04-24T03:35:28;9.10;;;8.50;;
2107;SDS011;1060;52.492;13.388;2023-04-24T03:38:03;8.87;;;8.07;;
2107;SDS011;1060;52.492;13.388;2023-04-24T03:41:39;8.43;;;7.73;;
2107;SDS011;1060;52.492;13.388;2023-04-24T03:44:34;10.13;;;9.23;;
2107;SDS011;1060;52.492;13.388;2023-04-24T03:47:00;9.27;;;8.57;;
2107;SDS011;1060;52.492;13.388;2023-04-24T03:49:48;9.43;;;8.73;;
2107;SDS011;1060;52.492;13.388;2023-04-24T03:53:04;9.83;;;8.80;;
2107;SDS011;1060;52.492;13.388;2023-04-24T03:55:38;10.73;;;9.80;;
2107;SDS011;1060;52.492;13.388;2023-04-24T03:58:40;9.30;;;8.23;;
2107;SDS011;1060;52.492;13.388;2023-04-24T04:01:41;10.10;;;9.20;;
2107;SDS011;1060;52.492;13.388;2023-04-24T04:07:58;9.47;;;8.77;;
2107;SDS011;1060;52.492;13.388;2023-04-24T04:14:40;8.87;;;7.67;;
2107;SDS011;1060;52.492;13.388;2023-04-24T04:21:17;7.90;;;7.20;;
2107;SDS011;1060;52.492;13.388;2023-04-24T04:27:46;9.13;;;8.40;;
2107;SDS011;1060;52.492;13.388;2023-04-24T04:30:24;10.40;;;8.70;;
2107;SDS011;1060;52.492;13.388;2023-04-24T05:41:27;8.33;;;4.53;;
2107;SDS011;1060;52.492;13.388;2023-04-24T05:47:25;4.33;;;3.33;;
2107;SDS011;1060;52.492;13.388;2023-04-24T06:00:13;4.67;;;4.23;;
2107;SDS011;1060;52.492;13.388;2023-04-24T06:02:56;4.03;;;3.10;;
2107;SDS011;1060;52.492;13.388;2023-04-24T06:09:06;15.90;;;4.57;;
2107;SDS011;1060;52.492;13.388;2023-04-24T06:24:38;5.40;;;4.30;;
2107;SDS011;1060;52.492;13.388;2023-04-24T06:27:07;9.63;;;5.53;;
2107;SDS011;1060;52.492;13.388;2023-04-24T06:29:47;14.40;;;5.53;;
2107;SDS011;1060;52.492;13.388;2023-04-24T06:39:28;11.43;;;3.00;;
2107;SDS011;1060;52.492;13.388;2023-04-24T06:54:24;6.30;;;5.20;;
2107;SDS011;1060;52.492;13.388;2023-04-24T07:00:37;9.33;;;2.63;;
2107;SDS011;1060;52.492;13.388;2023-04-24T08:19:55;2.20;;;1.43;;
2107;SDS011;1060;52.492;13.388;2023-04-24T08:23:14;3.70;;;1.70;;
2107;SDS011;1060;52.492;13.388;2023-04-24T08:48:23;3.50;;;3.20;;
2107;SDS011;1060;52.492;13.388;2023-04-24T09:00:54;2.87;;;1.70;;
2107;SDS011;1060;52.492;13.388;2023-04-24T09:10:10;1.37;;;1.20;;
2107;SDS011;1060;52.492;13.388;2023-04-24T09:13:30;2.70;;;1.23;;
2107;SDS011;1060;52.492;13.388;2023-04-24T09:23:25;2.37;;;1.10;;
2107;SDS011;1060;52.492;13.388;2023-04-24T09:37:00;2.50;;;2.30;;
2107;SDS011;1060;52.492;13.388;2023-04-24T09:43:12;3.97;;;2.40;;
2107;SDS011;1060;52.492;13.388;2023-04-24T09:45:58;5.13;;;4.67;;
2107;SDS011;1060;52.492;13.388;2023-04-24T10:11:46;2.50;;;1.97;;
2107;SDS011;1060;52.492;13.388;2023-04-24T10:14:22;2.20;;;1.57;;
2107;SDS011;1060;52.492;13.388;2023-04-24T10:17:04;1.40;;;1.30;;
2107;SDS011;1060;52.492;13.388;2023-04-24T10:20:36;1.57;;;1.30;;
2107;SDS011;1060;52.492;13.388;2023-04-24T10:23:38;3.03;;;1.80;;
2107;SDS011;1060;52.492;13.388;2023-04-24T10:27:06;7.40;;;6.17;;
2107;SDS011;1060;52.492;13.388;2023-04-24T10:29:53;3.10;;;1.50;;
2107;SDS011;1060;52.492;13.388;2023-04-24T10:36:11;2.37;;;1.20;;
2107;SDS011;1060;52.492;13.388;2023-04-24T10:38:55;3.80;;;1.23;;
2107;SDS011;1060;52.492;13.388;2023-04-24T10:41:36;1.50;;;1.40;;
2107;SDS011;1060;52.492;13.388;2023-04-24T10:44:44;3.00;;;2.13;;
2107;SDS011;1060;52.492;13.388;2023-04-24T10:47:41;1.80;;;1.13;;
2107;SDS011;1060;52.492;13.388;2023-04-24T10:50:14;5.23;;;2.47;;
2107;SDS011;1060;52.492;13.388;2023-04-24T10:53:15;4.00;;;2.40;;
2107;SDS011;1060;52.492;13.388;2023-04-24T10:56:08;1.70;;;1.20;;
2107;SDS011;1060;52.492;13.388;2023-04-24T11:02:35;4.90;;;2.50;;
2107;SDS011;1060;52.492;13.388;2023-04-24T11:05:19;3.27;;;2.57;;
2107;SDS011;1060;52.492;13.388;2023-04-24T11:08:32;2.70;;;1.90;;
2107;SDS011;1060;52.492;13.388;2023-04-24T11:11:28;1.67;;;1.53;;
2107;SDS011;1060;52.492;13.388;2023-04-24T11:18:25;3.17;;;1.57;;
2107;SDS011;1060;52.492;13.388;2023-04-24T11:27:29;2.70;;;1.30;;
2107;SDS011;1060;52.492;13.388;2023-04-24T11:30:19;2.13;;;1.53;;
2107;SDS011;1060;52.492;13.388;2023-04-24T11:32:53;2.27;;;2.07;;
2107;SDS011;1060;52.492;13.388;2023-04-24T11:39:04;3.23;;;1.83;;
2107;SDS011;1060;52.492;13.388;2023-04-24T11:48:03;3.27;;;2.40;;
2107;SDS011;1060;52.492;13.388;2023-04-24T11:50:54;2.63;;;1.60;;
2107;SDS011;1060;52.492;13.388;2023-04-24T11:53:44;2.23;;;1.10;;
2107;SDS011;1060;52.492;13.388;2023-04-24T12:05:42;2.33;;;1.50;;
2107;SDS011;1060;52.492;13.388;2023-04-24T12:19:36;4.57;;;1.90;;
2107;SDS011;1060;52.492;13.388;2023-04-24T12:29:25;8.10;;;6.53;;
2107;SDS011;1060;52.492;13.388;2023-04-24T12:32:19;2.60;;;1.53;;
2107;SDS011;1060;52.492;13.388;2023-04-24T12:35:04;6.73;;;3.13;;
2107;SDS011;1060;52.492;13.388;2023-04-24T12:37:52;4.03;;;1.40;;
2107;SDS011;1060;52.492;13.388;2023-04-24T12:40:34;1.30;;;1.20;;
2107;SDS011;1060;52.492;13.388;2023-04-24T12:45:53;5.23;;;1.20;;
2107;SDS011;1060;52.492;13.388;2023-04-24T13:02:30;3.73;;;1.63;;
2107;SDS011;1060;52.492;13.388;2023-04-24T13:05:08;3.67;;;1.60;;
2107;SDS011;1060;52.492;13.388;2023-04-24T13:07:53;6.33;;;2.07;;
2107;SDS011;1060;52.492;13.388;2023-04-24T13:10:45;4.80;;;1.53;;
2107;SDS011;1060;52.492;13.388;2023-04-24T13:13:49;3.80;;;2.50;;
2107;SDS011;1060;52.492;13.388;2023-04-24T13:37:26;1.40;;;1.27;;
2107;SDS011;1060;52.492;13.388;2023-04-24T13:39:55;4.20;;;3.80;;
2107;SDS011;1060;52.492;13.388;2023-04-24T13:42:22;3.37;;;2.17;;
2107;SDS011;1060;52.492;13.388;2023-04-24T13:44:56;2.30;;;2.10;;
2107;SDS011;1060;52.492;13.388;2023-04-24T13:47:22;3.10;;;2.60;;
2107;SDS011;1060;52.492;13.388;2023-04-24T13:49:48;7.60;;;2.50;;
2107;SDS011;1060;52.492;13.388;2023-04-24T13:52:18;4.80;;;3.90;;
2107;SDS011;1060;52.492;13.388;2023-04-24T13:55:38;1.63;;;1.53;;
2107;SDS011;1060;52.492;13.388;2023-04-24T14:02:19;2.97;;;1.70;;
2107;SDS011;1060;52.492;13.388;2023-04-24T14:14:05;2.63;;;1.80;;
2107;SDS011;1060;52.492;13.388;2023-04-24T14:16:32;2.00;;;1.90;;
2107;SDS011;1060;52.492;13.388;2023-04-24T14:22:29;3.33;;;2.30;;
2107;SDS011;1060;52.492;13.388;2023-04-24T14:24:55;7.83;;;4.33;;
2107;SDS011;1060;52.492;13.388;2023-04-24T14:27:28;9.10;;;3.40;;
2107;SDS011;1060;52.492;13.388;2023-04-24T15:17:06;2.17;;;1.90;;
2107;SDS011;1060;52.492;13.388;2023-04-24T15:19:51;2.60;;;1.70;;
2107;SDS011;1060;52.492;13.388;2023-04-24T15:22:20;1.90;;;1.60;;
2107;SDS011;1060;52.492;13.388;2023-04-24T15:24:56;5.97;;;2.90;;
2107;SDS011;1060;52.492;13.388;2023-04-24T15:27:26;2.87;;;2.53;;
2107;SDS011;1060;52.492;13.388;2023-04-24T15:29:58;2.33;;;2.00;;
2107;SDS011;1060;52.492;13.388;2023-04-24T16:44:28;2.90;;;2.20;;
2107;SDS011;1060;52.492;13.388;2023-04-24T16:46:54;6.03;;;2.60;;
2107;SDS011;1060;52.492;13.388;2023-04-24T16:49:23;1.80;;;1.70;;
2107;SDS011;1060;52.492;13.388;2023-04-24T16:52:22;1.80;;;1.43;;
2107;SDS011;1060;52.492;13.388;2023-04-24T16:54:53;9.10;;;3.00;;
2107;SDS011;1060;52.492;13.388;2023-04-24T17:08:19;3.30;;;1.47;;
2107;SDS011;1060;52.492;13.388;2023-04-24T17:10:52;1.50;;;1.40;;
2107;SDS011;1060;52.492;13.388;2023-04-24T17:13:24;2.57;;;2.00;;
2107;SDS011;1060;52.492;13.388;2023-04-24T17:15:52;4.47;;;2.97;;
2107;SDS011;1060;52.492;13.388;2023-04-24T17:18:27;2.53;;;2.20;;
2107;SDS011;1060;52.492;13.388;2023-04-24T17:20:59;3.07;;;2.20;;
2107;SDS011;1060;52.492;13.388;2023-04-24T17:23:28;1.63;;;1.53;;
2107;SDS011;1060;52.492;13.388;2023-04-24T17:26:00;5.33;;;2.53;;
2107;SDS011;1060;52.492;13.388;2023-04-24T17:28:39;3.03;;;2.53;;
2107;SDS011;1060;52.492;13.388;2023-04-24T17:31:23;3.00;;;2.43;;
2107;SDS011;1060;52.492;13.388;2023-04-24T17:33:50;4.00;;;2.70;;
2107;SDS011;1060;52.492;13.388;2023-04-24T17:36:37;3.57;;;3.00;;
2107;SDS011;1060;52.492;13.388;2023-04-24T17:39:05;6.83;;;4.80;;
2107;SDS011;1060;52.492;13.388;2023-04-24T17:41:34;3.07;;;1.83;;
2107;SDS011;1060;52.492;13.388;2023-04-24T17:44:01;4.97;;;4.30;;
2107;SDS011;1060;52.492;13.388;2023-04-24T17:46:30;2.07;;;1.53;;
2107;SDS011;1060;52.492;13.388;2023-04-24T17:49:02;4.47;;;4.03;;
2107;SDS011;1060;52.492;13.388;2023-04-24T17:51:28;3.87;;;3.57;;
2107;SDS011;1060;52.492;13.388;2023-04-24T17:53:54;5.67;;;3.40;;
2107;SDS011;1060;52.492;13.388;2023-04-24T17:56:21;2.27;;;2.17;;
2107;SDS011;1060;52.492;13.388;2023-04-24T17:58:49;3.93;;;3.60;;
2107;SDS011;1060;52.492;13.388;2023-04-24T18:01:16;2.73;;;2.20;;
2107;SDS011;1060;52.492;13.388;2023-04-24T18:03:42;2.80;;;1.80;;
2107;SDS011;1060;52.492;13.388;2023-04-24T18:06:09;6.50;;;5.57;;
2107;SDS011;1060;52.492;13.388;2023-04-24T18:08:35;3.80;;;2.63;;
2107;SDS011;1060;52.492;13.388;2023-04-24T18:11:02;3.10;;;2.80;;
2107;SDS011;1060;52.492;13.388;2023-04-24T18:13:28;2.70;;;2.20;;
2107;SDS011;1060;52.492;13.388;2023-04-24T18:24:25;2.70;;;2.50;;
2107;SDS011;1060;52.492;13.388;2023-04-24T18:27:14;2.10;;;1.77;;
2107;SDS011;1060;52.492;13.388;2023-04-24T18:29:45;2.50;;;2.30;;
2107;SDS011;1060;52.492;13.388;2023-04-24T18:32:18;4.30;;;1.77;;
2107;SDS011;1060;52.492;13.388;2023-04-24T18:34:51;2.93;;;1.90;;
2107;SDS011;1060;52.492;13.388;2023-04-24T18:48:16;2.03;;;1.93;;
2107;SDS011;1060;52.492;13.388;2023-04-24T19:24:42;2.77;;;2.17;;
2107;SDS011;1060;52.492;13.388;2023-04-24T22:06:52;4.60;;;4.30;;
2107;SDS011;1060;52.492;13.388;2023-04-24T22:09:21;5.77;;;5.27;;
2107;SDS011;1060;52.492;13.388;2023-04-24T22:12:17;4.83;;;4.43;;
2107;SDS011;1060;52.492;13.388;2023-04-24T22:15:00;9.10;;;5.57;;
2107;SDS011;1060;52.492;13.388;2023-04-24T22:18:06;9.23;;;6.30;;
2107;SDS011;1060;52.492;13.388;2023-04-24T22:23:25;5.57;;;5.20;;
2107;SDS011;1060;52.492;13.388;2023-04-24T22:29:36;8.43;;;4.90;;
2107;SDS011;1060;52.492;13.388;2023-04-24T22:32:23;7.20;;;4.70;;
2107;SDS011;1060;52.492;13.388;2023-04-24T22:41:08;4.87;;;4.50;;
2107;SDS011;1060;52.492;13.388;2023-04-24T22:50:44;6.50;;;5.97;;
2107;SDS011;1060;52.492;13.388;2023-04-24T22:54:04;9.87;;;7.30;;
2107;SDS011;1060;52.492;13.388;2023-04-24T22:56:38;8.93;;;8.13;;
2107;SDS011;1060;52.492;13.388;2023-04-24T22:59:21;6.57;;;6.17;;
2107;SDS011;1060;52.492;13.388;2023-04-24T23:15:50;8.13;;;4.73;;
2107;SDS011;1060;52.492;13.388;2023-04-24T23:18:58;7.57;;;6.97;;
2107;SDS011;1060;52.492;13.388;2023-04-24T23:28:28;6.30;;;5.53;;
2107;SDS011;1060;52.492;13.388;2023-04-24T23:31:06;7.13;;;4.90;;
2107;SDS011;1060;52.492;13.388;2023-04-24T23:33:32;5.30;;;4.80;;
2107;SDS011;1060;52.492;13.388;2023-04-24T23:36:04;6.30;;;5.70;;
2107;SDS011;1060;52.492;13.388;2023-04-24T23:41:43;4.37;;;3.97;;
2107;SDS011;1060;52.492;13.388;2023-04-24T23:44:28;7.23;;;4.83;;
2107;SDS011;1060;52.492;13.388;2023-04-24T23:46:55;4.07;;;3.70;;
2107;SDS011;1060;52.492;13.388;2023-04-24T23:49:29;5.00;;;3.60;;
2107;SDS011;1060;52.492;13.388;2023-04-24T23:51:58;3.97;;;3.67;;
2107;SDS011;1060;52.492;13.388;2023-04-24T23:54:46;4.13;;;3.80;;
2107;SDS011;1060;52.492;13.388;2023-04-24T23:57:15;6.73;;;6.13;;
